Accueil
METAR-TAF:

METAR-TAF

Aéroports :

Aéroport international de Genève

Genève, Suisse

latitude: 46-15N, longitude: 006-08E, altitude: 420 m

Observation

Le bulletin a été fait il y a 29 minutes, à 08:50 UTC
Vent 1 kt de direction variable
Température 0°C
Humidité 100%
Pression 997 hPa
Visibilité 10 km ou plus
Nuages épars à une hauteur de 800 ft

METAR: LSGG 050850Z VRB01KT 9999 SCT008 00/M00 Q0997 R04/29//// NOSIG

Heure: 10:19 (09:19 UTC)

Prévision

Le bulletin a été fait il y a 54 minutes, à 08:25 UTC
Prévision valable du 05 à 09 UTC au 06 à 15 UTC
Vent 3 kt de direction variable
Visibilité 10 km ou plus
Quelques nuages à une hauteur de 3000 ft

TAF: LSGG 050825Z 0509/0615 VRB03KT 9999 FEW030 TX04/0515Z TNM01/0606Z TX03/0615Z

Observations et prévisions météorologiques de plus de 4000 aéroports (messages METAR et TAF).

Les stations disponibles sont représentées par des disques jaunes et rouges sur la carte.

Passer la souris dessus pour voir le nom de la station.

Cliquer dessus pour voir les observations et prévisions météorologiques.

Pour changer de carte: cliquez sur les boutons verts avec une croix noire pour zoomer, sur le bouton vert avec un tiret pour effectuer un zoom arrière, ou sur les flèches vertes pour les cartes adjacentes.


METAR-TAF: